Flight Track Log - Related Links

Times and Time Zones

All times are in EDT time to prevent confusion due to time zone crossing. See the AAL1862 flight status page for this flight to view local times or setup timezone preferences in your user account.

Time Position Orientation Groundspeed Altitude Reporting Facility
EDT Latitude Longitude Course Direction KTS MPH feet Rate Location/Type
Tue 08:50:04 AM 25.8039 -80.2608 338° Northwest 201 231 1,000  Level Miami Center
Tue 08:50:41 AM 25.8058 -80.2308 86° East 162 186 2,100 1,500 Climbing Miami Center
Tue 08:51:04 AM 25.8086 -80.2078 82° East 175 201 2,500 1,082 Climbing Miami Center
Tue 08:51:42 AM 25.8325 -80.1728 53° Northeast 240 276 3,200 968 Climbing Miami Center
Tue 08:52:00 AM 26.1035 -80.3800 339° North  Level FlightAware
Tue 08:52:06 AM 25.8544 -80.1736 358° North 245 282 3,500  Level Miami Center
Tue 08:52:43 AM 25.8997 -80.2033 329° Northwest 284 327 5,300 2,557 Climbing Miami Center
Tue 08:53:00 AM 26.2089 -80.4167 North  Level FlightAware
Tue 08:53:07 AM 25.9189 -80.2161 329° Northwest 266 306 6,100  Level Miami Center
Tue 08:54:00 AM 26.3117 -80.4642 336° Northwest  Level FlightAware
Tue 08:54:09 AM 25.9831 -80.2603 328° Northwest 273 314 8,600  Level Miami Center
Tue 08:55:00 AM 26.4143 -80.5141 338° Northwest  Level FlightAware
Tue 08:55:11 AM 26.0494 -80.3042 329° Northwest 278 320 10,400  Level Miami Center
Tue 08:56:12 AM 26.1256 -80.3567 328° Northwest 330 380 11,300 1,512 Climbing Miami Center
Tue 08:57:14 AM 26.2281 -80.4278 328° Northwest 361 415 13,500 2,098 Climbing Miami Center
Tue 08:58:15 AM 26.3319 -80.4775 337° Northwest 376 433 15,600 1,707 Climbing Miami Center
Tue 08:59:17 AM 26.4319 -80.5250 337° Northwest 392 451 17,000 1,500 Climbing Miami Center
Tue 09:00:19 AM 26.5344 -80.5739 337° Northwest 397 457 18,700 1,561 Climbing Miami Center
Tue 09:01:20 AM 26.6497 -80.6208 340° North 408 470 20,200 1,415 Climbing Miami Center
Tue 09:02:22 AM 26.7603 -80.6628 341° North 415 478 21,600 1,258 Climbing Miami Center
Tue 09:03:24 AM 26.8708 -80.7036 342° North 422 486 22,800 1,073 Climbing Miami Center
Tue 09:04:25 AM 26.9811 -80.7447 342° North 432 497 23,800 927 Climbing Miami Center
Tue 09:05:27 AM 27.0972 -80.7883 342° North 436 502 24,700 927 Climbing Miami Center
Tue 09:06:28 AM 27.2183 -80.8278 344° North 447 514 25,700 1,024 Climbing Miami Center
Tue 09:07:30 AM 27.3558 -80.8556 350° North 458 527 26,800 878 Climbing Miami Center
Tue 09:08:31 AM 27.4825 -80.8836 349° North 461 531 27,500 829 Climbing Miami Center
Tue 09:09:33 AM 27.6125 -80.9117 349° North 474 545 28,500 1,016 Climbing Miami Center
Tue 09:10:35 AM 27.7403 -80.9381 350° North 474 545 29,600 1,220 Climbing Miami Center
Tue 09:11:36 AM 27.8919 -80.9706 349° North 467 537 31,000 1,220 Climbing Miami Center
Tue 09:12:38 AM 28.0169 -80.9975 349° North 463 533 32,100 968 Climbing Miami Center
Tue 09:13:40 AM 28.1439 -81.0253 349° North 457 526 33,000 439 Climbing Miami Center
Tue 09:14:41 AM 28.2742 -81.0533 349° North 456 525 33,000  Level Miami Center
Tue 09:15:43 AM 28.3906 -81.0783 349° North 460 529 33,000  Level Miami Center
Tue 09:16:44 AM 28.5153 -81.1050 349° North 459 528 33,000  Level Miami Center
Tue 09:17:46 AM 28.6439 -81.1342 349° North 459 528 33,000 -48 Level Miami Center
Tue 09:18:48 AM 28.7681 -81.1617 349° North 457 526 32,900 -49 Descending Miami Center
Tue 09:19:49 AM 28.9175 -81.1906 350° North 454 522 32,900  Level Miami Center
Tue 09:20:51 AM 29.0422 -81.2144 350° North 453 521 32,900 47 Level Miami Center
Tue 09:21:57 AM 29.1725 -81.2422 349° North 450 518 33,000 48 Climbing Jacksonville Center
Tue 09:22:57 AM 29.2978 -81.2639 351° North 450 518 33,000  Level Jacksonville Center
Tue 09:23:57 AM 29.4214 -81.2903 349° North 450 518 33,000  Level Jacksonville Center
Tue 09:24:57 AM 29.5575 -81.3167 350° North 450 518 33,000  Level Jacksonville Center
Tue 09:25:57 AM 29.6850 -81.3411 351° North 450 518 33,000 -50 Level Jacksonville Center
Tue 09:26:58 AM 29.8086 -81.3656 350° North 450 518 32,900  Descending Jacksonville Center
Tue 09:27:57 AM 29.9361 -81.3897 351° North 450 518 33,000 50 Climbing Jacksonville Center
Tue 09:28:57 AM 30.0639 -81.4142 351° North 450 518 33,000  Level Jacksonville Center
Tue 09:29:57 AM 30.1894 -81.4386 350° North 450 518 33,000  Level Jacksonville Center
Tue 09:30:57 AM 30.3169 -81.4633 350° North 455 524 33,000  Level Jacksonville Center
Tue 09:31:57 AM 30.4447 -81.4903 350° North 460 529 33,000  Level Jacksonville Center
Tue 09:32:57 AM 30.5722 -81.5150 351° North 460 529 33,000 -50 Level Jacksonville Center
Tue 09:33:57 AM 30.6978 -81.5419 350° North 460 529 32,900  Descending Jacksonville Center
Tue 09:34:57 AM 30.8275 -81.5669 351° North 465 535 33,000 50 Climbing Jacksonville Center
Tue 09:35:57 AM 30.9531 -81.5917 350° North 465 535 33,000  Level Jacksonville Center
Tue 09:36:57 AM 31.0764 -81.6167 350° North 460 529 33,000  Level Jacksonville Center
Tue 09:37:57 AM 31.2042 -81.6442 350° North 455 524 33,000  Level Jacksonville Center
Tue 09:38:57 AM 31.3297 -81.6692 350° North 455 524 33,000  Level Jacksonville Center
Tue 09:39:57 AM 31.4572 -81.6967 350° North 466 536 33,000  Level Jacksonville Center
Tue 09:40:57 AM 31.5722 -81.7172 351° North 466 536 33,000  Level Jacksonville Center
Tue 09:41:57 AM 31.7103 -81.7472 350° North 466 536 33,000  Level Jacksonville Center
Tue 09:42:57 AM 31.8381 -81.7725 350° North 466 536 33,000  Level Jacksonville Center
Tue 09:43:57 AM 31.9508 -81.7981 349° North 466 536 33,000  Level Jacksonville Center
Tue 09:46:15 AM 32.2322 -81.8561 350° North 463 533 33,000  Level Atlanta Center
Tue 09:47:15 AM 32.3664 -81.8822 351° North 463 533 33,000  Level Atlanta Center
Tue 09:48:15 AM 32.4919 -81.9061 351° North 463 533 33,000  Level Atlanta Center
Tue 09:49:15 AM 32.6197 -81.9328 350° North 463 533 33,000  Level Atlanta Center
Tue 09:50:15 AM 32.7456 -81.9594 350° North 458 527 33,000 -200 Level Atlanta Center
Tue 09:51:15 AM 32.8692 -81.9836 351° North 453 521 32,600 -700 Descending Atlanta Center
Tue 09:52:15 AM 32.9886 -82.0106 349° North 446 513 31,600 -950 Descending Atlanta Center
Tue 09:53:15 AM 33.0975 -82.0328 350° North 418 481 30,700 -1,050 Descending Atlanta Center
Tue 09:54:15 AM 33.2231 -82.0597 350° North 407 468 29,500 -1,350 Descending Atlanta Center
Tue 09:55:15 AM 33.3319 -82.0822 350° North 402 463 28,000 -1,700 Descending Atlanta Center
Tue 09:56:15 AM 33.4367 -82.1047 350° North 396 456 26,100 -1,500 Descending Atlanta Center
Tue 09:57:15 AM 33.5436 -82.1272 350° North 391 450 25,000 -550 Descending Atlanta Center
Tue 09:58:15 AM 33.6483 -82.1622 344° North 391 450 25,000  Level Atlanta Center
Tue 09:59:15 AM 33.7492 -82.2025 342° North 386 444 25,000  Level Atlanta Center
Tue 10:00:15 AM 33.8500 -82.2428 342° North 386 444 25,000  Level Atlanta Center
Tue 10:01:15 AM 33.9528 -82.2858 341° North 386 444 25,000  Level Atlanta Center
Tue 10:02:15 AM 34.0431 -82.3242 341° North 386 444 25,000 -250 Level Atlanta Center
Tue 10:03:15 AM 34.1456 -82.3294 358° North 386 444 24,500 -700 Descending Atlanta Center
Tue 10:04:15 AM 34.2131 -82.2328 50° Northeast 334 384 23,600 -1,100 Descending Atlanta Center
Tue 10:05:15 AM 34.2700 -82.1308 56° Northeast 329 379 22,300 -1,500 Descending Atlanta Center
Tue 10:06:15 AM 34.3414 -82.0411 46° Northeast 346 398 20,600 -1,650 Descending Atlanta Center
Tue 10:07:15 AM 34.4111 -81.9514 47° Northeast 352 405 19,000 -1,450 Descending Atlanta Center
Tue 10:08:15 AM 34.4764 -81.8692 46° Northeast 347 399 17,700 -1,350 Descending Atlanta Center
Tue 10:09:15 AM 34.5417 -81.7869 46° Northeast 342 394 16,300 -2,850 Descending Atlanta Center
Tue 10:10:15 AM 34.5925 -81.7225 46° Northeast 331 381 12,000 -1,517 Descending Atlanta Center
Tue 10:10:42 AM 34.6394 -81.6631 46° Northeast 325 374 14,100 1,600 Climbing Atlanta Center
Tue 10:11:15 AM 34.6681 -81.6294 44° Northeast 325 374 13,600 -1,400 Descending Atlanta Center
Tue 10:11:42 AM 34.7025 -81.5856 46° Northeast 321 369 12,700 -1,400 Descending Atlanta Center
Tue 10:12:15 AM 34.7269 -81.5519 48° Northeast 319 367 12,200 -627 Descending Atlanta Center
Tue 10:12:49 AM 34.7717 -81.4975 45° Northeast 312 359 12,000 -200 Descending Atlanta Center
Tue 10:13:15 AM 34.7861 -81.4767 50° Northeast 312 359 12,000  Level Atlanta Center
Tue 10:13:44 AM 34.8225 -81.4325 45° Northeast 311 358 12,000  Level Atlanta Center
Tue 10:14:15 AM 34.8550 -81.3886 48° Northeast 302 348 12,000 -197 Level Atlanta Center
Tue 10:14:45 AM 34.8856 -81.3497 46° Northeast 312 359 11,800 -900 Descending Atlanta Center
Tue 10:15:15 AM 34.9097 -81.3083 55° Northeast 302 348 11,100 -1,343 Descending Atlanta Center
Tue 10:15:52 AM 34.9464 -81.2692 41° Northeast 300 345 10,300 -1,100 Descending Atlanta Center
Tue 10:16:15 AM 34.9667 -81.2406 49° Northeast 302 348 10,000 -295 Descending Atlanta Center
Tue 10:16:53 AM 35.0031 -81.1964 45° Northeast 299 344 10,000  Level Atlanta Center
Tue 10:17:15 AM 35.0275 -81.1675 44° Northeast 302 348 10,000  Level Atlanta Center
Tue 10:17:48 AM 35.0578 -81.1258 48° Northeast 304 350 10,000  Level Atlanta Center
Tue 10:18:15 AM 35.0842 -81.0919 46° Northeast 302 348 10,000 -448 Level Atlanta Center
Tue 10:18:55 AM 35.1356 -81.0622 25° Northeast 302 348 9,500 -900 Descending Atlanta Center
Tue 10:19:15 AM 35.1608 -81.0689 348° North 280 322 9,100 -492 Descending Atlanta Center
Tue 10:19:56 AM 35.2172 -81.0719 357° North 282 325 9,000 -647 Descending Atlanta Center
Tue 10:20:57 AM 35.2861 -81.0772 356° North 242 278 8,000 -1,138 Descending Atlanta Center
Tue 10:21:52 AM 35.3486 -81.0750 North 235 270 6,800 -1,036 Descending Atlanta Center
Tue 10:22:47 AM 35.4094 -81.0828 354° North 233 268 6,100 -414 Descending Atlanta Center
Tue 10:23:48 AM 35.4697 -81.0806 North 217 250 6,000 -443 Descending Atlanta Center
Tue 10:24:49 AM 35.5306 -81.0861 356° North 214 246 5,200 -469 Descending Atlanta Center
Tue 10:25:56 AM 35.5289 -81.0200 92° East 204 235 5,000 -94 Descending Atlanta Center
Tue 10:26:57 AM 35.4761 -80.9939 158° South 198 228 5,000 -197 Level Atlanta Center
Tue 10:27:58 AM 35.4236 -80.9881 175° South 202 232 4,600 -738 Descending Atlanta Center
Tue 10:28:59 AM 35.3694 -80.9825 175° South 195 224 3,500 -1,033 Descending Atlanta Center
Tue 10:30:00 AM 35.3108 -80.9769 176° South 190 219 2,500 -885 Descending Atlanta Center
Tue 10:31:01 AM 35.2711 -80.9733 176° South 144 166 1,700 -780 Descending Atlanta Center
Tue 10:32:03 AM 35.2314 -80.9697 176° South 140 161 900 -774 Descending Atlanta Center
Tue 10:34:00 AM 35.2137 -80.9491 165° South  Level Estimated

Login

Don't have an account? Register now (free) for customized features, flight alerts, and more!